createdAt,value
2019-01-11T00:00:00.713Z,101587.00
2019-01-11T00:02:31.180Z,101579.00
2019-01-11T00:05:01.864Z,101582.00
2019-01-11T00:07:32.246Z,101568.00
2019-01-11T00:10:02.528Z,101584.00
2019-01-11T00:12:32.789Z,101579.00
2019-01-11T00:15:04.849Z,101571.00
2019-01-11T00:17:35.122Z,101571.00
2019-01-11T00:20:07.071Z,101563.00
2019-01-11T00:22:37.281Z,101565.00
2019-01-11T00:25:07.712Z,101564.00
2019-01-11T00:27:38.017Z,101563.00
2019-01-11T00:30:09.284Z,101554.00
2019-01-11T00:32:39.546Z,101561.00
2019-01-11T00:35:10.057Z,101546.00
2019-01-11T00:37:40.352Z,101543.00
2019-01-11T00:40:10.602Z,101534.00
2019-01-11T00:42:40.898Z,101528.00
2019-01-11T00:45:11.286Z,101528.00
2019-01-11T00:47:41.778Z,101529.00
2019-01-11T00:50:12.132Z,101527.00
2019-01-11T00:52:42.470Z,101525.00
2019-01-11T00:55:13.363Z,101524.00
2019-01-11T00:57:43.686Z,101512.00
2019-01-11T01:00:16.954Z,101507.00
2019-01-11T01:02:48.074Z,101518.00
2019-01-11T01:05:19.190Z,101508.00
2019-01-11T01:07:50.053Z,101504.00
2019-01-11T01:10:21.429Z,101508.00
2019-01-11T01:12:52.082Z,101491.00
2019-01-11T01:15:22.452Z,101498.00
2019-01-11T01:17:52.807Z,101497.00
2019-01-11T01:20:24.356Z,101492.00
2019-01-11T01:22:54.709Z,101504.00
2019-01-11T01:25:25.112Z,101497.00
2019-01-11T01:27:55.442Z,101499.00
2019-01-11T01:30:25.848Z,101506.00
2019-01-11T01:32:56.235Z,101497.00
2019-01-11T01:35:26.572Z,101490.00
2019-01-11T01:37:56.876Z,101489.00
2019-01-11T01:40:27.224Z,101492.00
2019-01-11T01:42:57.598Z,101491.00
2019-01-11T01:45:28.058Z,101491.00
2019-01-11T01:47:58.426Z,101485.00
2019-01-11T01:50:29.082Z,101482.00
2019-01-11T01:52:59.506Z,101478.00
2019-01-11T01:55:29.774Z,101467.00
2019-01-11T01:58:00.292Z,101475.00
2019-01-11T02:00:30.764Z,101474.00
2019-01-11T02:03:01.114Z,101463.00
2019-01-11T02:05:32.511Z,101462.00
2019-01-11T02:08:02.745Z,101459.00
2019-01-11T02:10:32.987Z,101451.00
2019-01-11T02:13:04.445Z,101449.00
2019-01-11T02:15:34.757Z,101446.00
2019-01-11T02:18:05.317Z,101454.00
2019-01-11T02:20:35.681Z,101455.00
2019-01-11T02:23:05.922Z,101447.00
2019-01-11T02:25:36.176Z,101450.00
2019-01-11T02:28:06.776Z,101441.00
2019-01-11T02:30:38.024Z,101440.00
2019-01-11T02:33:08.311Z,101437.00
2019-01-11T02:35:38.522Z,101444.00
2019-01-11T02:38:10.514Z,101434.00
2019-01-11T02:40:40.746Z,101439.00
2019-01-11T02:43:10.922Z,101431.00
2019-01-11T02:45:44.110Z,101429.00
2019-01-11T02:48:14.467Z,101424.00
2019-01-11T02:50:44.779Z,101428.00
2019-01-11T02:53:15.272Z,101426.00
2019-01-11T02:55:45.576Z,101425.00
2019-01-11T02:58:15.926Z,101427.00
2019-01-11T03:00:46.214Z,101412.00
2019-01-11T03:03:16.580Z,101414.00
2019-01-11T03:05:46.985Z,101406.00
2019-01-11T03:08:17.250Z,101414.00
2019-01-11T03:10:47.577Z,101403.00
2019-01-11T03:13:17.866Z,101404.00
2019-01-11T03:15:48.246Z,101391.00
2019-01-11T03:18:18.526Z,101395.00
2019-01-11T03:20:48.844Z,101391.00
2019-01-11T03:23:19.120Z,101390.00
2019-01-11T03:25:52.240Z,101374.00
2019-01-11T03:28:22.514Z,101383.00
2019-01-11T03:30:52.872Z,101363.00
2019-01-11T03:33:23.166Z,101358.00
2019-01-11T03:35:53.617Z,101366.00
2019-01-11T03:38:23.876Z,101367.00
2019-01-11T03:40:54.158Z,101361.00
2019-01-11T03:43:24.654Z,101345.00
2019-01-11T03:45:55.289Z,101348.00
2019-01-11T03:48:25.724Z,101341.00
2019-01-11T03:50:56.046Z,101338.00
2019-01-11T03:53:26.359Z,101343.00
2019-01-11T03:55:56.963Z,101331.00
2019-01-11T03:58:27.277Z,101327.00
2019-01-11T04:00:57.557Z,101335.00
2019-01-11T04:03:27.847Z,101333.00
2019-01-11T04:05:58.204Z,101327.00
2019-01-11T04:08:28.488Z,101320.00
2019-01-11T04:10:58.784Z,101321.00
2019-01-11T04:13:30.688Z,101310.00
2019-01-11T04:16:01.018Z,101306.00
2019-01-11T04:18:36.111Z,101304.00
2019-01-11T04:21:06.394Z,101299.00
2019-01-11T04:23:36.659Z,101295.00
2019-01-11T04:26:06.986Z,101292.00
2019-01-11T04:28:39.122Z,101289.00
2019-01-11T04:31:09.512Z,101298.00
2019-01-11T04:33:39.891Z,101279.00
2019-01-11T04:36:10.118Z,101289.00
2019-01-11T04:38:40.607Z,101285.00
2019-01-11T04:41:10.936Z,101287.00
2019-01-11T04:43:41.358Z,101298.00
2019-01-11T04:46:11.690Z,101289.00
2019-01-11T04:48:42.338Z,101271.00
2019-01-11T04:51:12.658Z,101286.00
2019-01-11T04:53:43.010Z,101282.00
2019-01-11T04:56:13.357Z,101280.00
2019-01-11T04:58:43.802Z,101281.00
2019-01-11T05:01:14.111Z,101265.00
2019-01-11T05:03:44.481Z,101270.00
2019-01-11T05:06:14.747Z,101281.00
2019-01-11T05:08:44.986Z,101268.00
2019-01-11T05:11:15.413Z,101269.00
2019-01-11T05:13:50.809Z,101271.00
2019-01-11T05:16:21.023Z,101268.00
2019-01-11T05:18:51.414Z,101261.00
2019-01-11T05:21:21.745Z,101266.00
2019-01-11T05:23:52.069Z,101260.00
2019-01-11T05:26:22.245Z,101248.00
2019-01-11T05:28:52.618Z,101255.00
2019-01-11T05:31:22.939Z,101262.00
2019-01-11T05:33:53.380Z,101248.00
2019-01-11T05:36:25.891Z,101238.00
2019-01-11T05:38:58.614Z,101241.00
2019-01-11T05:41:28.125Z,101235.00
2019-01-11T05:43:58.415Z,101237.00
2019-01-11T05:46:28.814Z,101238.00
2019-01-11T05:48:59.064Z,101239.00
2019-01-11T05:51:29.374Z,101234.00
2019-01-11T05:53:59.621Z,101233.00
2019-01-11T05:56:29.942Z,101229.00
2019-01-11T05:59:07.436Z,101222.00
2019-01-11T06:01:37.675Z,101214.00
2019-01-11T06:04:35.698Z,101213.00
2019-01-11T06:07:18.581Z,101211.00
2019-01-11T06:09:49.093Z,101210.00
2019-01-11T06:12:19.474Z,101212.00
2019-01-11T06:14:50.053Z,101215.00
2019-01-11T06:17:20.375Z,101207.00
2019-01-11T06:19:50.579Z,101210.00
2019-01-11T06:22:20.773Z,101221.00
2019-01-11T06:24:51.048Z,101210.00
2019-01-11T06:27:21.377Z,101214.00
2019-01-11T06:29:51.567Z,101209.00
2019-01-11T06:32:21.851Z,101197.00
2019-01-11T06:34:52.097Z,101218.00
2019-01-11T06:37:22.362Z,101205.00
2019-01-11T06:39:52.579Z,101205.00
2019-01-11T06:42:26.425Z,101204.00
2019-01-11T06:44:56.813Z,101205.00
2019-01-11T06:47:27.319Z,101199.00
2019-01-11T06:49:57.537Z,101198.00
2019-01-11T06:52:27.759Z,101193.00
2019-01-11T06:55:00.283Z,101200.00
2019-01-11T06:57:30.473Z,101192.00
2019-01-11T07:00:00.870Z,101208.00
2019-01-11T07:02:31.085Z,101207.00
2019-01-11T07:05:01.342Z,101197.00
2019-01-11T07:07:31.633Z,101203.00
2019-01-11T07:10:01.855Z,101189.00
2019-01-11T07:12:32.196Z,101204.00
2019-01-11T07:15:02.375Z,101194.00
2019-01-11T07:17:32.479Z,101202.00
2019-01-11T07:20:05.818Z,101195.00
2019-01-11T07:22:35.079Z,101213.00
2019-01-11T07:25:07.062Z,101199.00
2019-01-11T07:27:43.977Z,101199.00
2019-01-11T07:30:14.757Z,101198.00
2019-01-11T07:32:45.049Z,101192.00
2019-01-11T07:35:15.521Z,101183.00
2019-01-11T07:37:45.887Z,101196.00
2019-01-11T07:40:16.380Z,101190.00
2019-01-11T07:42:46.897Z,101188.00
2019-01-11T07:45:17.330Z,101180.00
2019-01-11T07:47:47.953Z,101192.00
2019-01-11T07:50:18.309Z,101190.00
2019-01-11T07:52:48.760Z,101199.00
2019-01-11T07:55:19.165Z,101184.00
2019-01-11T07:57:49.779Z,101200.00
2019-01-11T08:00:20.436Z,101198.00
2019-01-11T08:02:52.373Z,101200.00
2019-01-11T08:05:23.586Z,101201.00
2019-01-11T08:07:54.234Z,101194.00
2019-01-11T08:10:25.545Z,101194.00
2019-01-11T08:12:56.200Z,101195.00
2019-01-11T08:15:26.611Z,101187.00
2019-01-11T08:17:57.115Z,101188.00
2019-01-11T08:20:27.500Z,101187.00
2019-01-11T08:22:58.084Z,101194.00
2019-01-11T08:25:31.212Z,101189.00
2019-01-11T08:28:01.785Z,101185.00
2019-01-11T08:30:35.239Z,101192.00
2019-01-11T08:33:06.207Z,101189.00
2019-01-11T08:35:39.134Z,101181.00
2019-01-11T08:38:10.284Z,101189.00
2019-01-11T08:40:40.902Z,101195.00
2019-01-11T08:43:11.342Z,101189.00
2019-01-11T08:45:41.838Z,101196.00
2019-01-11T08:48:15.333Z,101191.00
2019-01-11T08:50:47.252Z,101190.00
2019-01-11T08:53:17.697Z,101192.00
2019-01-11T08:55:48.152Z,101188.00
2019-01-11T08:58:20.437Z,101181.00
2019-01-11T09:00:53.977Z,101186.00
2019-01-11T09:03:24.575Z,101184.00
2019-01-11T09:05:55.128Z,101179.00
2019-01-11T09:08:26.210Z,101170.00
2019-01-11T09:10:56.710Z,101169.00
2019-01-11T09:13:27.406Z,101160.00
2019-01-11T09:15:57.948Z,101156.00
2019-01-11T09:18:49.244Z,101157.00
2019-01-11T09:21:19.916Z,101158.00
2019-01-11T09:23:50.470Z,101155.00
2019-01-11T09:26:20.868Z,101157.00
2019-01-11T09:28:51.352Z,101165.00
2019-01-11T09:31:21.704Z,101159.00
2019-01-11T09:33:52.337Z,101146.00
2019-01-11T09:36:25.050Z,101140.00
2019-01-11T09:38:55.799Z,101149.00
2019-01-11T09:41:26.366Z,101156.00
2019-01-11T09:43:59.568Z,101150.00
2019-01-11T09:46:30.430Z,101148.00
2019-01-11T09:49:01.222Z,101137.00
2019-01-11T09:51:31.518Z,101140.00
2019-01-11T09:54:02.162Z,101137.00
2019-01-11T09:56:32.806Z,101135.00
2019-01-11T09:59:03.204Z,101139.00
2019-01-11T10:01:33.760Z,101138.00
2019-01-11T10:04:04.480Z,101137.00
2019-01-11T10:06:36.508Z,101118.00
2019-01-11T10:09:08.047Z,101130.00
2019-01-11T10:11:38.524Z,101118.00
2019-01-11T10:14:08.882Z,101115.00
2019-01-11T10:16:39.450Z,101120.00
2019-01-11T10:19:12.763Z,101120.00
2019-01-11T10:21:46.521Z,101111.00
2019-01-11T10:24:17.046Z,101101.00
2019-01-11T10:26:47.620Z,101111.00
2019-01-11T10:29:18.171Z,101102.00
2019-01-11T10:31:50.310Z,101102.00
2019-01-11T10:34:20.925Z,101101.00
2019-01-11T10:36:54.302Z,101085.00
2019-01-11T10:39:25.041Z,101102.00
2019-01-11T10:41:55.679Z,101087.00
2019-01-11T10:44:27.858Z,101081.00
2019-01-11T10:46:58.625Z,101087.00
2019-01-11T10:49:29.067Z,101093.00
2019-01-11T10:51:59.629Z,101092.00
2019-01-11T10:54:37.666Z,101076.00
2019-01-11T10:57:08.178Z,101074.00
2019-01-11T10:59:38.774Z,101075.00
2019-01-11T11:02:09.716Z,101061.00
2019-01-11T11:04:40.296Z,101053.00
2019-01-11T11:07:11.148Z,101054.00
2019-01-11T11:09:41.640Z,101051.00
2019-01-11T11:12:12.308Z,101050.00
2019-01-11T11:14:42.771Z,101040.00
2019-01-11T11:17:13.439Z,101037.00
2019-01-11T11:19:44.001Z,101032.00
2019-01-11T11:22:14.617Z,101026.00
2019-01-11T11:24:45.184Z,101026.00
2019-01-11T11:27:15.990Z,101019.00
2019-01-11T11:29:46.444Z,101022.00
2019-01-11T11:32:18.581Z,101024.00
2019-01-11T11:34:49.038Z,101016.00
2019-01-11T11:37:19.672Z,101010.00
2019-01-11T11:39:50.334Z,101012.00
2019-01-11T11:42:20.760Z,101014.00
2019-01-11T11:44:54.996Z,101014.00
2019-01-11T11:47:25.385Z,101011.00
2019-01-11T11:49:55.802Z,101000.00
2019-01-11T11:52:26.338Z,101006.00
2019-01-11T11:54:56.631Z,101007.00
2019-01-11T11:57:27.199Z,101008.00
2019-01-11T11:59:57.602Z,101006.00
2019-01-11T12:02:27.977Z,100992.00
2019-01-11T12:04:58.402Z,100990.00
2019-01-11T12:07:28.893Z,101002.00
2019-01-11T12:09:59.335Z,100978.00
2019-01-11T12:12:31.371Z,100990.00
2019-01-11T12:15:02.132Z,100989.00
2019-01-11T12:17:32.691Z,100987.00
2019-01-11T12:20:03.142Z,100990.00
2019-01-11T12:22:33.513Z,100981.00
2019-01-11T12:25:04.020Z,100984.00
2019-01-11T12:27:34.442Z,100972.00
2019-01-11T12:30:06.534Z,100976.00
2019-01-11T12:32:37.113Z,100976.00
2019-01-11T12:35:07.605Z,100969.00
2019-01-11T12:37:38.115Z,100965.00
2019-01-11T12:40:09.847Z,100959.00
2019-01-11T12:42:40.324Z,100963.00
2019-01-11T12:45:12.299Z,100959.00
2019-01-11T12:47:42.984Z,100960.00
2019-01-11T12:50:16.470Z,100945.00
2019-01-11T12:52:46.903Z,100955.00
2019-01-11T12:55:17.513Z,100945.00
2019-01-11T12:57:48.001Z,100932.00
2019-01-11T13:00:19.423Z,100921.00
2019-01-11T13:02:50.060Z,100923.00
2019-01-11T13:05:21.442Z,100929.00
2019-01-11T13:07:51.891Z,100912.00
2019-01-11T13:10:22.500Z,100914.00
2019-01-11T13:12:53.060Z,100909.00
2019-01-11T13:15:24.778Z,100913.00
2019-01-11T13:17:55.415Z,100897.00
2019-01-11T13:20:25.719Z,100886.00
2019-01-11T13:22:56.125Z,100900.00
2019-01-11T13:25:31.951Z,100897.00
2019-01-11T13:27:58.464Z,100890.00
2019-01-11T13:30:28.869Z,100889.00
2019-01-11T13:32:59.401Z,100882.00
2019-01-11T13:35:29.805Z,100880.00
2019-01-11T13:38:00.202Z,100870.00
2019-01-11T13:40:30.569Z,100876.00
2019-01-11T13:43:00.809Z,100881.00
2019-01-11T13:45:31.436Z,100889.00
2019-01-11T13:48:01.823Z,100880.00
2019-01-11T13:50:42.924Z,100891.00
2019-01-11T13:53:15.157Z,100881.00
2019-01-11T13:55:45.561Z,100885.00
2019-01-11T13:58:16.112Z,100889.00
2019-01-11T14:00:46.439Z,100894.00
2019-01-11T14:03:16.889Z,100888.00
2019-01-11T14:05:47.335Z,100883.00
2019-01-11T14:08:17.864Z,100887.00
2019-01-11T14:10:48.217Z,100874.00
2019-01-11T14:13:22.711Z,100888.00
2019-01-11T14:15:53.685Z,100873.00
2019-01-11T14:18:24.491Z,100882.00
2019-01-11T14:20:55.383Z,100882.00
2019-01-11T14:23:28.510Z,100873.00
2019-01-11T14:25:58.851Z,100868.00
2019-01-11T14:28:29.487Z,100872.00
2019-01-11T14:31:00.001Z,100875.00
2019-01-11T14:33:32.018Z,100888.00
2019-01-11T14:36:02.501Z,100884.00
2019-01-11T14:38:33.044Z,100881.00
2019-01-11T14:41:03.358Z,100880.00
2019-01-11T14:43:33.797Z,100869.00
2019-01-11T14:46:04.254Z,100890.00
2019-01-11T14:48:34.931Z,100883.00
2019-01-11T14:51:05.680Z,100893.00
2019-01-11T14:53:36.097Z,100879.00
2019-01-11T14:56:06.465Z,100879.00
2019-01-11T14:58:36.959Z,100873.00
2019-01-11T15:01:08.158Z,100887.00
2019-01-11T15:03:38.539Z,100884.00
2019-01-11T15:06:08.912Z,100883.00
2019-01-11T15:08:39.362Z,100882.00
2019-01-11T15:11:09.697Z,100878.00
2019-01-11T15:13:40.107Z,100885.00
2019-01-11T15:16:10.446Z,100882.00
2019-01-11T15:18:40.690Z,100875.00
2019-01-11T15:21:10.928Z,100870.00
2019-01-11T15:23:41.232Z,100873.00
2019-01-11T15:26:11.534Z,100883.00
2019-01-11T15:28:41.845Z,100874.00
2019-01-11T15:31:12.127Z,100889.00
2019-01-11T15:33:42.301Z,100899.00
2019-01-11T15:36:12.580Z,100890.00
2019-01-11T15:38:42.787Z,100886.00
2019-01-11T15:41:12.992Z,100888.00
2019-01-11T15:43:43.175Z,100883.00
2019-01-11T15:46:15.238Z,100892.00
2019-01-11T15:48:47.952Z,100882.00
2019-01-11T15:51:20.800Z,100896.00
2019-01-11T15:53:51.017Z,100890.00
2019-01-11T15:56:25.946Z,100892.00
2019-01-11T15:58:56.136Z,100910.00
2019-01-11T16:01:26.317Z,100899.00
2019-01-11T16:03:56.546Z,100914.00
2019-01-11T16:06:35.453Z,100910.00
2019-01-11T16:09:19.076Z,100921.00
2019-01-11T16:11:54.859Z,100916.00
2019-01-11T16:14:43.022Z,100912.00
2019-01-11T16:17:15.059Z,100909.00
2019-01-11T16:19:45.252Z,100899.00
2019-01-11T16:22:15.766Z,100904.00
2019-01-11T16:24:46.088Z,100898.00
2019-01-11T16:27:16.347Z,100902.00
2019-01-11T16:29:46.662Z,100913.00
2019-01-11T16:32:17.014Z,100905.00
2019-01-11T16:34:47.359Z,100896.00
2019-01-11T16:37:17.676Z,100902.00
2019-01-11T16:39:48.149Z,100902.00
2019-01-11T16:42:19.713Z,100909.00
2019-01-11T16:44:50.056Z,100897.00
2019-01-11T16:47:20.583Z,100907.00
2019-01-11T16:49:50.919Z,100921.00
2019-01-11T16:52:21.218Z,100914.00
2019-01-11T16:54:51.449Z,100913.00
2019-01-11T16:57:21.909Z,100910.00
2019-01-11T16:59:52.266Z,100920.00
2019-01-11T17:02:22.521Z,100910.00
2019-01-11T17:04:52.768Z,100911.00
2019-01-11T17:07:23.012Z,100921.00
2019-01-11T17:09:54.681Z,100910.00
2019-01-11T17:12:24.994Z,100917.00
2019-01-11T17:14:55.369Z,100915.00
2019-01-11T17:17:25.630Z,100918.00
2019-01-11T17:19:55.883Z,100924.00
2019-01-11T17:22:26.245Z,100934.00
2019-01-11T17:24:56.510Z,100928.00
2019-01-11T17:27:26.832Z,100926.00
2019-01-11T17:29:57.106Z,100927.00
2019-01-11T17:32:27.430Z,100917.00
2019-01-11T17:34:57.702Z,100926.00
2019-01-11T17:37:28.075Z,100923.00
2019-01-11T17:39:58.422Z,100933.00
2019-01-11T17:42:28.828Z,100922.00
2019-01-11T17:44:59.212Z,100920.00
2019-01-11T17:47:29.543Z,100928.00
2019-01-11T17:50:01.282Z,100926.00
2019-01-11T17:52:31.897Z,100924.00
2019-01-11T17:55:02.147Z,100926.00
2019-01-11T17:57:35.424Z,100939.00
2019-01-11T18:00:09.192Z,100935.00
2019-01-11T18:02:39.570Z,100929.00
2019-01-11T18:05:10.608Z,100935.00
2019-01-11T18:07:40.926Z,100935.00
2019-01-11T18:10:11.764Z,100934.00
2019-01-11T18:12:42.950Z,100935.00
2019-01-11T18:15:19.302Z,100940.00
2019-01-11T18:17:49.983Z,100939.00
2019-01-11T18:20:22.624Z,100939.00
2019-01-11T18:22:53.003Z,100950.00
2019-01-11T18:25:23.321Z,100931.00
2019-01-11T18:27:53.710Z,100937.00
2019-01-11T18:30:24.080Z,100932.00
2019-01-11T18:32:54.526Z,100950.00
2019-01-11T18:35:24.844Z,100940.00
2019-01-11T18:37:55.260Z,100950.00
2019-01-11T18:40:27.086Z,100946.00
2019-01-11T18:42:57.414Z,100965.00
2019-01-11T18:45:28.788Z,100948.00
2019-01-11T18:47:59.616Z,100959.00
2019-01-11T18:50:29.983Z,100956.00
2019-01-11T18:53:00.354Z,100959.00
2019-01-11T18:55:30.948Z,100962.00
2019-01-11T18:58:01.254Z,100955.00
2019-01-11T19:00:31.596Z,100971.00
2019-01-11T19:03:01.988Z,100959.00
2019-01-11T19:05:32.380Z,100950.00
2019-01-11T19:08:02.858Z,100960.00
2019-01-11T19:10:33.069Z,100960.00
2019-01-11T19:13:03.347Z,100960.00
2019-01-11T19:15:33.828Z,100963.00
2019-01-11T19:18:04.298Z,100956.00
2019-01-11T19:20:34.792Z,100953.00
2019-01-11T19:23:05.363Z,100955.00
2019-01-11T19:25:35.634Z,100968.00
2019-01-11T19:28:06.359Z,100969.00
2019-01-11T19:30:36.715Z,100959.00
2019-01-11T19:33:07.094Z,100964.00
2019-01-11T19:35:37.463Z,100963.00
2019-01-11T19:38:07.907Z,100973.00
2019-01-11T19:40:38.230Z,100958.00
2019-01-11T19:43:08.612Z,100960.00
2019-01-11T19:45:38.887Z,100969.00
2019-01-11T19:48:09.367Z,100975.00
2019-01-11T19:50:39.713Z,100965.00
2019-01-11T19:53:10.103Z,100975.00
2019-01-11T19:55:40.646Z,100973.00
2019-01-11T19:58:11.001Z,100965.00
2019-01-11T20:00:41.337Z,100968.00
2019-01-11T20:03:11.809Z,100972.00
2019-01-11T20:05:42.319Z,100973.00
2019-01-11T20:08:14.555Z,100981.00
2019-01-11T20:10:44.812Z,100971.00
2019-01-11T20:13:15.147Z,100970.00
2019-01-11T20:15:45.534Z,100973.00
2019-01-11T20:18:15.892Z,100975.00
2019-01-11T20:20:46.269Z,100975.00
2019-01-11T20:23:16.672Z,100972.00
2019-01-11T20:25:47.065Z,100976.00
2019-01-11T20:28:17.351Z,100969.00
2019-01-11T20:30:47.688Z,100976.00
2019-01-11T20:33:18.006Z,100972.00
2019-01-11T20:35:48.231Z,100978.00
2019-01-11T20:38:18.525Z,100985.00
2019-01-11T20:40:48.728Z,100970.00
2019-01-11T20:43:19.073Z,100979.00
2019-01-11T20:45:49.304Z,100985.00
2019-01-11T20:48:19.606Z,100971.00
2019-01-11T20:50:49.927Z,100982.00
2019-01-11T20:53:20.359Z,100981.00
2019-01-11T20:55:50.684Z,100983.00
2019-01-11T20:58:21.176Z,100990.00
2019-01-11T21:00:51.457Z,100991.00
2019-01-11T21:03:21.848Z,100987.00
2019-01-11T21:05:52.554Z,100985.00
2019-01-11T21:08:22.953Z,100998.00
2019-01-11T21:10:53.790Z,100993.00
2019-01-11T21:13:24.097Z,100997.00
2019-01-11T21:15:54.377Z,100997.00
2019-01-11T21:18:24.708Z,100993.00
2019-01-11T21:20:55.063Z,101002.00
2019-01-11T21:23:25.347Z,100993.00
2019-01-11T21:25:55.770Z,101004.00
2019-01-11T21:28:26.269Z,101002.00
2019-01-11T21:30:57.558Z,101000.00
2019-01-11T21:33:28.184Z,101001.00
2019-01-11T21:35:58.553Z,100998.00
2019-01-11T21:38:28.893Z,101002.00
2019-01-11T21:40:59.197Z,100997.00
2019-01-11T21:43:29.507Z,100998.00
2019-01-11T21:46:03.562Z,101002.00
2019-01-11T21:48:31.650Z,100997.00
2019-01-11T21:51:01.917Z,101002.00
2019-01-11T21:53:32.262Z,101010.00
2019-01-11T21:56:02.612Z,100996.00
2019-01-11T21:58:33.001Z,100990.00
2019-01-11T22:01:05.396Z,101005.00
2019-01-11T22:03:35.811Z,101017.00
2019-01-11T22:06:06.362Z,101003.00
2019-01-11T22:08:36.676Z,101008.00
2019-01-11T22:11:07.007Z,101002.00
2019-01-11T22:13:37.320Z,101002.00
2019-01-11T22:16:07.557Z,101003.00
2019-01-11T22:18:37.869Z,101000.00
2019-01-11T22:21:08.845Z,101011.00
2019-01-11T22:23:39.953Z,101003.00
2019-01-11T22:26:10.249Z,101006.00
2019-01-11T22:28:40.525Z,101007.00
2019-01-11T22:31:10.869Z,101008.00
2019-01-11T22:33:41.103Z,101014.00
2019-01-11T22:36:11.346Z,101024.00
2019-01-11T22:38:41.805Z,101019.00
2019-01-11T22:41:12.191Z,101021.00
2019-01-11T22:43:42.508Z,101018.00
2019-01-11T22:46:12.822Z,101027.00
2019-01-11T22:48:43.170Z,101024.00
2019-01-11T22:51:13.445Z,101013.00
2019-01-11T22:53:43.756Z,101018.00
2019-01-11T22:56:14.132Z,101022.00
2019-01-11T22:58:44.468Z,101017.00
2019-01-11T23:01:33.918Z,101020.00
2019-01-11T23:04:04.350Z,101011.00
2019-01-11T23:07:03.740Z,101016.00
2019-01-11T23:09:42.150Z,101019.00
2019-01-11T23:12:28.014Z,101026.00
2019-01-11T23:14:58.407Z,101025.00
2019-01-11T23:17:47.987Z,101026.00
2019-01-11T23:20:18.388Z,101027.00
2019-01-11T23:22:48.701Z,101031.00
2019-01-11T23:25:18.990Z,101027.00
2019-01-11T23:27:49.234Z,101013.00
2019-01-11T23:30:20.213Z,101006.00
2019-01-11T23:32:50.577Z,101016.00
2019-01-11T23:35:20.889Z,101022.00
2019-01-11T23:37:51.145Z,101016.00
2019-01-11T23:40:21.474Z,101018.00
2019-01-11T23:42:51.854Z,101026.00
2019-01-11T23:45:22.221Z,101020.00
2019-01-11T23:47:52.950Z,101029.00
2019-01-11T23:50:23.278Z,101015.00
2019-01-11T23:52:53.650Z,101008.00
2019-01-11T23:55:23.958Z,101020.00
2019-01-11T23:57:54.194Z,101001.00
